sensor_id;sensor_type;location;lat;lon;timestamp;pressure;altitude;pressure_sealevel;temperature;humidity
50867;BME280;36839;51.946;21.002;2022-12-07T00:02:10;99383.04;;;1.27;100.00
50867;BME280;36839;51.946;21.002;2022-12-07T00:04:36;99383.04;;;1.27;100.00
50867;BME280;36839;51.946;21.002;2022-12-07T00:07:07;99369.80;;;1.30;100.00
50867;BME280;36839;51.946;21.002;2022-12-07T00:09:33;99369.36;;;1.33;100.00
50867;BME280;36839;51.946;21.002;2022-12-07T00:12:02;99368.59;;;1.35;100.00
50867;BME280;36839;51.946;21.002;2022-12-07T00:14:31;99372.20;;;1.38;100.00
50867;BME280;36839;51.946;21.002;2022-12-07T00:17:00;99370.06;;;1.40;100.00
50867;BME280;36839;51.946;21.002;2022-12-07T00:19:32;99369.33;;;1.42;100.00
50867;BME280;36839;51.946;21.002;2022-12-07T00:22:05;99375.59;;;1.43;100.00
50867;BME280;36839;51.946;21.002;2022-12-07T00:24:31;99375.59;;;1.43;100.00
50867;BME280;36839;51.946;21.002;2022-12-07T00:26:59;99364.92;;;1.41;100.00
50867;BME280;36839;51.946;21.002;2022-12-07T00:29:27;99367.79;;;1.47;100.00
50867;BME280;36839;51.946;21.002;2022-12-07T00:31:58;99358.56;;;1.48;100.00
50867;BME280;36839;51.946;21.002;2022-12-07T00:34:29;99355.02;;;1.47;100.00
50867;BME280;36839;51.946;21.002;2022-12-07T00:36:56;99359.53;;;1.53;100.00
50867;BME280;36839;51.946;21.002;2022-12-07T00:39:22;99358.77;;;1.55;100.00
50867;BME280;36839;51.946;21.002;2022-12-07T00:41:49;99356.39;;;1.59;100.00
50867;BME280;36839;51.946;21.002;2022-12-07T00:44:15;99356.39;;;1.59;100.00
50867;BME280;36839;51.946;21.002;2022-12-07T00:46:44;99357.31;;;1.62;100.00
50867;BME280;36839;51.946;21.002;2022-12-07T00:49:14;99351.05;;;1.61;100.00
50867;BME280;36839;51.946;21.002;2022-12-07T00:51:44;99351.05;;;1.61;100.00
50867;BME280;36839;51.946;21.002;2022-12-07T00:54:11;99375.47;;;1.70;100.00
50867;BME280;36839;51.946;21.002;2022-12-07T00:56:41;99376.92;;;1.73;100.00
50867;BME280;36839;51.946;21.002;2022-12-07T00:59:10;99375.02;;;1.74;100.00
50867;BME280;36839;51.946;21.002;2022-12-07T01:01:43;99373.42;;;1.75;100.00
50867;BME280;36839;51.946;21.002;2022-12-07T01:04:09;99373.42;;;1.75;100.00
50867;BME280;36839;51.946;21.002;2022-12-07T01:06:40;99377.80;;;1.76;100.00
50867;BME280;36839;51.946;21.002;2022-12-07T01:09:09;99371.29;;;1.77;100.00
50867;BME280;36839;51.946;21.002;2022-12-07T01:11:38;99371.29;;;1.77;100.00
50867;BME280;36839;51.946;21.002;2022-12-07T01:14:08;99375.61;;;1.76;100.00
50867;BME280;36839;51.946;21.002;2022-12-07T01:16:38;99374.25;;;1.76;100.00
50867;BME280;36839;51.946;21.002;2022-12-07T01:19:10;99374.25;;;1.76;100.00
50867;BME280;36839;51.946;21.002;2022-12-07T01:21:43;99371.29;;;1.77;100.00
50867;BME280;36839;51.946;21.002;2022-12-07T01:24:12;99371.29;;;1.77;100.00
50867;BME280;36839;51.946;21.002;2022-12-07T01:26:40;99358.45;;;1.75;100.00
50867;BME280;36839;51.946;21.002;2022-12-07T01:29:12;99355.14;;;1.73;100.00
50867;BME280;36839;51.946;21.002;2022-12-07T01:31:39;99363.55;;;1.71;100.00
50867;BME280;36839;51.946;21.002;2022-12-07T01:34:08;99361.03;;;1.70;100.00
50867;BME280;36839;51.946;21.002;2022-12-07T01:36:35;99353.93;;;1.69;100.00
50867;BME280;36839;51.946;21.002;2022-12-07T01:39:06;99363.70;;;1.67;100.00
50867;BME280;36839;51.946;21.002;2022-12-07T01:41:37;99359.85;;;1.66;100.00
50867;BME280;36839;51.946;21.002;2022-12-07T01:44:18;99358.73;;;1.64;100.00
50867;BME280;36839;51.946;21.002;2022-12-07T01:46:46;99362.75;;;1.62;100.00
50867;BME280;36839;51.946;21.002;2022-12-07T01:49:20;99361.07;;;1.61;100.00
50867;BME280;36839;51.946;21.002;2022-12-07T01:51:50;99361.07;;;1.61;100.00
50867;BME280;36839;51.946;21.002;2022-12-07T01:54:17;99359.77;;;1.52;100.00
50867;BME280;36839;51.946;21.002;2022-12-07T01:56:49;99348.80;;;1.49;100.00
50867;BME280;36839;51.946;21.002;2022-12-07T01:59:19;99346.31;;;1.48;100.00
50867;BME280;36839;51.946;21.002;2022-12-07T02:01:50;99351.11;;;1.43;100.00
50867;BME280;36839;51.946;21.002;2022-12-07T02:04:18;99349.22;;;1.43;100.00
50867;BME280;36839;51.946;21.002;2022-12-07T02:06:48;99338.27;;;1.32;100.00
50867;BME280;36839;51.946;21.002;2022-12-07T02:09:18;99349.25;;;1.34;100.00
50867;BME280;36839;51.946;21.002;2022-12-07T02:11:46;99355.22;;;1.34;100.00
50867;BME280;36839;51.946;21.002;2022-12-07T02:14:15;99355.22;;;1.34;100.00
50867;BME280;36839;51.946;21.002;2022-12-07T02:20:00;99343.98;;;1.21;100.00
50867;BME280;36839;51.946;21.002;2022-12-07T02:22:59;99347.83;;;1.23;100.00
50867;BME280;36839;51.946;21.002;2022-12-07T02:28:29;99345.36;;;1.12;100.00
50867;BME280;36839;51.946;21.002;2022-12-07T02:31:11;99345.36;;;1.12;100.00
50867;BME280;36839;51.946;21.002;2022-12-07T02:33:45;99339.27;;;1.07;100.00
50867;BME280;36839;51.946;21.002;2022-12-07T02:36:16;99339.27;;;1.07;100.00
50867;BME280;36839;51.946;21.002;2022-12-07T02:39:00;99339.95;;;1.03;100.00
50867;BME280;36839;51.946;21.002;2022-12-07T02:41:38;99339.95;;;1.03;100.00
50867;BME280;36839;51.946;21.002;2022-12-07T02:44:05;99338.40;;;0.95;100.00
50867;BME280;36839;51.946;21.002;2022-12-07T02:46:38;99338.40;;;0.95;100.00
50867;BME280;36839;51.946;21.002;2022-12-07T02:49:05;99330.98;;;0.93;100.00
50867;BME280;36839;51.946;21.002;2022-12-07T02:51:38;99325.65;;;0.87;100.00
50867;BME280;36839;51.946;21.002;2022-12-07T02:54:01;99329.10;;;0.84;100.00
50867;BME280;36839;51.946;21.002;2022-12-07T03:11:02;99320.60;;;0.72;100.00
50867;BME280;36839;51.946;21.002;2022-12-07T03:13:33;99316.39;;;0.67;100.00
50867;BME280;36839;51.946;21.002;2022-12-07T03:19:10;99314.28;;;0.60;100.00
50867;BME280;36839;51.946;21.002;2022-12-07T03:21:50;99315.17;;;0.53;100.00
50867;BME280;36839;51.946;21.002;2022-12-07T03:24:15;99312.86;;;0.48;100.00
50867;BME280;36839;51.946;21.002;2022-12-07T03:26:46;99319.48;;;0.52;100.00
50867;BME280;36839;51.946;21.002;2022-12-07T03:29:19;99319.48;;;0.52;100.00
50867;BME280;36839;51.946;21.002;2022-12-07T03:31:45;99312.23;;;0.46;100.00
50867;BME280;36839;51.946;21.002;2022-12-07T03:34:21;99316.94;;;0.48;100.00
50867;BME280;36839;51.946;21.002;2022-12-07T03:36:50;99317.90;;;0.44;100.00
50867;BME280;36839;51.946;21.002;2022-12-07T03:39:27;99315.11;;;0.42;100.00
50867;BME280;36839;51.946;21.002;2022-12-07T03:41:51;99308.55;;;0.40;100.00
50867;BME280;36839;51.946;21.002;2022-12-07T03:44:20;99304.19;;;0.39;100.00
50867;BME280;36839;51.946;21.002;2022-12-07T03:49:51;99315.48;;;0.36;100.00
50867;BME280;36839;51.946;21.002;2022-12-07T03:52:24;99306.59;;;0.29;100.00
50867;BME280;36839;51.946;21.002;2022-12-07T03:55:00;99306.59;;;0.29;100.00
50867;BME280;36839;51.946;21.002;2022-12-07T03:57:29;99301.37;;;0.27;100.00
50867;BME280;36839;51.946;21.002;2022-12-07T03:59:59;99301.37;;;0.27;100.00
50867;BME280;36839;51.946;21.002;2022-12-07T04:02:29;99300.94;;;0.21;100.00
50867;BME280;36839;51.946;21.002;2022-12-07T04:05:01;99296.99;;;0.17;100.00
50867;BME280;36839;51.946;21.002;2022-12-07T04:07:27;99293.15;;;0.16;100.00
50867;BME280;36839;51.946;21.002;2022-12-07T04:09:53;99299.94;;;0.16;100.00
50867;BME280;36839;51.946;21.002;2022-12-07T04:12:21;99299.94;;;0.16;100.00
50867;BME280;36839;51.946;21.002;2022-12-07T04:14:51;99285.06;;;0.09;100.00
50867;BME280;36839;51.946;21.002;2022-12-07T04:17:19;99290.59;;;0.12;100.00
50867;BME280;36839;51.946;21.002;2022-12-07T04:19:45;99297.61;;;0.10;100.00
50867;BME280;36839;51.946;21.002;2022-12-07T04:22:14;99295.42;;;0.10;100.00
50867;BME280;36839;51.946;21.002;2022-12-07T04:24:45;99304.93;;;0.10;100.00
50867;BME280;36839;51.946;21.002;2022-12-07T04:27:14;99290.50;;;0.09;100.00
50867;BME280;36839;51.946;21.002;2022-12-07T04:29:45;99292.72;;;0.10;100.00
50867;BME280;36839;51.946;21.002;2022-12-07T04:32:13;99293.73;;;0.09;100.00
50867;BME280;36839;51.946;21.002;2022-12-07T04:34:44;99293.73;;;0.09;100.00
50867;BME280;36839;51.946;21.002;2022-12-07T04:37:11;99293.21;;;0.09;100.00
50867;BME280;36839;51.946;21.002;2022-12-07T04:39:41;99294.56;;;0.09;100.00
50867;BME280;36839;51.946;21.002;2022-12-07T04:42:09;99294.56;;;0.09;100.00
50867;BME280;36839;51.946;21.002;2022-12-07T04:44:38;99290.95;;;0.06;100.00
50867;BME280;36839;51.946;21.002;2022-12-07T04:47:07;99288.02;;;0.08;100.00
50867;BME280;36839;51.946;21.002;2022-12-07T04:49:38;99284.41;;;0.05;100.00
50867;BME280;36839;51.946;21.002;2022-12-07T04:52:11;99277.25;;;0.01;100.00
50867;BME280;36839;51.946;21.002;2022-12-07T04:54:41;99283.05;;;0.05;100.00
50867;BME280;36839;51.946;21.002;2022-12-07T04:57:07;99278.30;;;0.00;100.00
50867;BME280;36839;51.946;21.002;2022-12-07T04:59:34;99276.25;;;-0.05;100.00
50867;BME280;36839;51.946;21.002;2022-12-07T05:02:02;99274.95;;;-0.02;100.00
50867;BME280;36839;51.946;21.002;2022-12-07T05:04:33;99272.55;;;-0.01;100.00
50867;BME280;36839;51.946;21.002;2022-12-07T05:07:03;99272.55;;;-0.01;100.00
50867;BME280;36839;51.946;21.002;2022-12-07T05:09:33;99269.23;;;-0.03;100.00
50867;BME280;36839;51.946;21.002;2022-12-07T05:12:04;99271.95;;;-0.03;100.00
50867;BME280;36839;51.946;21.002;2022-12-07T05:14:32;99272.70;;;-0.05;100.00
50867;BME280;36839;51.946;21.002;2022-12-07T05:17:00;99266.98;;;-0.06;100.00
50867;BME280;36839;51.946;21.002;2022-12-07T05:19:28;99265.92;;;-0.05;100.00
50867;BME280;36839;51.946;21.002;2022-12-07T05:21:54;99266.75;;;-0.05;100.00
50867;BME280;36839;51.946;21.002;2022-12-07T05:24:22;99266.52;;;-0.03;100.00
50867;BME280;36839;51.946;21.002;2022-12-07T05:26:52;99265.45;;;-0.02;100.00
50867;BME280;36839;51.946;21.002;2022-12-07T05:29:20;99273.07;;;-0.02;100.00
50867;BME280;36839;51.946;21.002;2022-12-07T05:31:47;99268.41;;;-0.04;100.00
50867;BME280;36839;51.946;21.002;2022-12-07T05:34:17;99263.80;;;-0.03;100.00
50867;BME280;36839;51.946;21.002;2022-12-07T05:36:43;99265.16;;;-0.03;100.00
50867;BME280;36839;51.946;21.002;2022-12-07T05:39:12;99263.27;;;-0.03;100.00
50867;BME280;36839;51.946;21.002;2022-12-07T05:41:41;99263.20;;;-0.05;100.00
50867;BME280;36839;51.946;21.002;2022-12-07T05:44:26;99269.46;;;-0.05;100.00
50867;BME280;36839;51.946;21.002;2022-12-07T05:46:55;99262.01;;;-0.09;100.00
50867;BME280;36839;51.946;21.002;2022-12-07T05:49:22;99269.69;;;-0.06;100.00
50867;BME280;36839;51.946;21.002;2022-12-07T05:51:48;99269.16;;;-0.06;100.00
50867;BME280;36839;51.946;21.002;2022-12-07T05:54:18;99269.69;;;-0.06;100.00
50867;BME280;36839;51.946;21.002;2022-12-07T05:56:47;99274.82;;;-0.07;100.00
50867;BME280;36839;51.946;21.002;2022-12-07T05:59:13;99272.41;;;-0.06;100.00
50867;BME280;36839;51.946;21.002;2022-12-07T06:01:53;99272.00;;;-0.10;100.00
50867;BME280;36839;51.946;21.002;2022-12-07T06:04:22;99272.00;;;-0.10;100.00
50867;BME280;36839;51.946;21.002;2022-12-07T06:06:55;99268.46;;;-0.10;100.00
50867;BME280;36839;51.946;21.002;2022-12-07T06:09:27;99264.09;;;-0.11;100.00
50867;BME280;36839;51.946;21.002;2022-12-07T06:11:55;99262.97;;;-0.13;100.00
50867;BME280;36839;51.946;21.002;2022-12-07T06:14:43;99262.97;;;-0.13;100.00
50867;BME280;36839;51.946;21.002;2022-12-07T06:17:10;99256.70;;;-0.13;100.00
50867;BME280;36839;51.946;21.002;2022-12-07T06:19:38;99256.11;;;-0.15;100.00
50867;BME280;36839;51.946;21.002;2022-12-07T06:22:09;99253.16;;;-0.14;100.00
50867;BME280;36839;51.946;21.002;2022-12-07T06:24:39;99253.16;;;-0.14;100.00
50867;BME280;36839;51.946;21.002;2022-12-07T06:27:08;99252.50;;;-0.18;100.00
50867;BME280;36839;51.946;21.002;2022-12-07T06:29:40;99251.20;;;-0.16;100.00
50867;BME280;36839;51.946;21.002;2022-12-07T06:32:16;99259.13;;;-0.14;100.00
50867;BME280;36839;51.946;21.002;2022-12-07T06:34:43;99261.84;;;-0.14;100.00
50867;BME280;36839;51.946;21.002;2022-12-07T06:37:13;99259.35;;;-0.16;100.00
50867;BME280;36839;51.946;21.002;2022-12-07T06:39:41;99256.94;;;-0.15;100.00
50867;BME280;36839;51.946;21.002;2022-12-07T06:42:10;99255.34;;;-0.13;100.00
50867;BME280;36839;51.946;21.002;2022-12-07T06:44:46;99259.18;;;-0.21;100.00
50867;BME280;36839;51.946;21.002;2022-12-07T06:47:18;99266.44;;;-0.15;100.00
50867;BME280;36839;51.946;21.002;2022-12-07T06:49:48;99262.89;;;-0.15;100.00
50867;BME280;36839;51.946;21.002;2022-12-07T06:52:14;99248.63;;;-0.20;100.00
50867;BME280;36839;51.946;21.002;2022-12-07T06:54:46;99248.63;;;-0.20;100.00
50867;BME280;36839;51.946;21.002;2022-12-07T06:57:15;99257.01;;;-0.12;100.00
50867;BME280;36839;51.946;21.002;2022-12-07T06:59:46;99256.64;;;-0.16;100.00
50867;BME280;36839;51.946;21.002;2022-12-07T07:02:14;99259.95;;;-0.14;100.00
50867;BME280;36839;51.946;21.002;2022-12-07T07:04:46;99259.95;;;-0.14;100.00
50867;BME280;36839;51.946;21.002;2022-12-07T07:07:19;99262.66;;;-0.14;100.00
50867;BME280;36839;51.946;21.002;2022-12-07T07:09:55;99264.25;;;-0.15;100.00
50867;BME280;36839;51.946;21.002;2022-12-07T07:12:27;99264.25;;;-0.15;100.00
50867;BME280;36839;51.946;21.002;2022-12-07T07:14:55;99258.06;;;-0.13;100.00
50867;BME280;36839;51.946;21.002;2022-12-07T07:17:22;99268.46;;;-0.10;100.00
50867;BME280;36839;51.946;21.002;2022-12-07T07:19:52;99270.34;;;-0.11;100.00
50867;BME280;36839;51.946;21.002;2022-12-07T07:22:22;99265.45;;;-0.11;100.00
50867;BME280;36839;51.946;21.002;2022-12-07T07:24:52;99265.45;;;-0.11;100.00
50867;BME280;36839;51.946;21.002;2022-12-07T07:27:20;99266.27;;;-0.11;100.00
50867;BME280;36839;51.946;21.002;2022-12-07T07:29:50;99266.27;;;-0.11;100.00
50867;BME280;36839;51.946;21.002;2022-12-07T07:32:19;99274.22;;;-0.09;100.00
50867;BME280;36839;51.946;21.002;2022-12-07T07:34:59;99269.81;;;-0.10;100.00
50867;BME280;36839;51.946;21.002;2022-12-07T07:37:33;99269.29;;;-0.10;100.00
50867;BME280;36839;51.946;21.002;2022-12-07T07:39:59;99275.65;;;-0.07;100.00
50867;BME280;36839;51.946;21.002;2022-12-07T07:42:30;99272.00;;;-0.10;100.00
50867;BME280;36839;51.946;21.002;2022-12-07T07:44:58;99268.80;;;-0.09;100.00
50867;BME280;36839;51.946;21.002;2022-12-07T07:47:31;99268.80;;;-0.09;100.00
50867;BME280;36839;51.946;21.002;2022-12-07T07:50:01;99267.49;;;-0.16;100.00
50867;BME280;36839;51.946;21.002;2022-12-07T07:52:32;99267.63;;;-0.11;100.00
50867;BME280;36839;51.946;21.002;2022-12-07T07:55:02;99266.91;;;-0.09;100.00
50867;BME280;36839;51.946;21.002;2022-12-07T07:57:30;99278.59;;;-0.08;100.00
50867;BME280;36839;51.946;21.002;2022-12-07T08:00:03;99276.41;;;-0.09;100.00
50867;BME280;36839;51.946;21.002;2022-12-07T08:02:29;99279.42;;;-0.08;100.00
50867;BME280;36839;51.946;21.002;2022-12-07T08:04:57;99279.42;;;-0.08;100.00
50867;BME280;36839;51.946;21.002;2022-12-07T08:07:29;99276.55;;;-0.04;100.00
50867;BME280;36839;51.946;21.002;2022-12-07T08:10:02;99274.23;;;0.00;100.00
50867;BME280;36839;51.946;21.002;2022-12-07T08:12:38;99283.50;;;0.02;100.00
50867;BME280;36839;51.946;21.002;2022-12-07T08:15:10;99273.38;;;-0.01;100.00
50867;BME280;36839;51.946;21.002;2022-12-07T08:17:45;99280.03;;;0.04;100.00
50867;BME280;36839;51.946;21.002;2022-12-07T08:20:21;99282.58;;;0.08;100.00
50867;BME280;36839;51.946;21.002;2022-12-07T15:06:23;99182.33;;;0.34;100.00
50867;BME280;36839;51.946;21.002;2022-12-07T15:08:51;99187.00;;;0.36;100.00
50867;BME280;36839;51.946;21.002;2022-12-07T15:11:19;99187.83;;;0.36;100.00
50867;BME280;36839;51.946;21.002;2022-12-07T15:13:49;99185.34;;;0.35;100.00
50867;BME280;36839;51.946;21.002;2022-12-07T15:16:37;99183.22;;;0.37;100.00
50867;BME280;36839;51.946;21.002;2022-12-07T15:19:20;99183.22;;;0.37;100.00
50867;BME280;36839;51.946;21.002;2022-12-07T15:21:43;99183.45;;;0.35;100.00
50867;BME280;36839;51.946;21.002;2022-12-07T15:24:11;99184.38;;;0.38;100.00
50867;BME280;36839;51.946;21.002;2022-12-07T15:26:42;99188.36;;;0.36;100.00
50867;BME280;36839;51.946;21.002;2022-12-07T15:29:10;99181.27;;;0.35;100.00
50867;BME280;36839;51.946;21.002;2022-12-07T15:31:38;99181.80;;;0.34;100.00
50867;BME280;36839;51.946;21.002;2022-12-07T15:34:08;99182.62;;;0.35;100.00
50867;BME280;36839;51.946;21.002;2022-12-07T15:36:35;99182.62;;;0.35;100.00
50867;BME280;36839;51.946;21.002;2022-12-07T15:39:03;99188.06;;;0.35;100.00
50867;BME280;36839;51.946;21.002;2022-12-07T15:41:29;99188.06;;;0.35;100.00
50867;BME280;36839;51.946;21.002;2022-12-07T15:43:59;99172.53;;;0.33;100.00
50867;BME280;36839;51.946;21.002;2022-12-07T15:46:46;99174.34;;;0.39;100.00
50867;BME280;36839;51.946;21.002;2022-12-07T15:49:16;99188.22;;;0.40;100.00
50867;BME280;36839;51.946;21.002;2022-12-07T15:51:46;99176.34;;;0.43;100.00
50867;BME280;36839;51.946;21.002;2022-12-07T15:54:20;99176.34;;;0.43;100.00
50867;BME280;36839;51.946;21.002;2022-12-07T15:56:49;99177.23;;;0.46;100.00
50867;BME280;36839;51.946;21.002;2022-12-07T15:59:17;99177.23;;;0.46;100.00
50867;BME280;36839;51.946;21.002;2022-12-07T16:01:44;99178.75;;;0.51;100.00
50867;BME280;36839;51.946;21.002;2022-12-07T16:04:11;99173.31;;;0.51;100.00
50867;BME280;36839;51.946;21.002;2022-12-07T16:06:39;99177.68;;;0.52;100.00
50867;BME280;36839;51.946;21.002;2022-12-07T16:09:07;99177.68;;;0.52;100.00
50867;BME280;36839;51.946;21.002;2022-12-07T16:11:36;99179.87;;;0.53;100.00
50867;BME280;36839;51.946;21.002;2022-12-07T16:14:05;99179.87;;;0.53;100.00
50867;BME280;36839;51.946;21.002;2022-12-07T16:16:32;99173.08;;;0.53;100.00
50867;BME280;36839;51.946;21.002;2022-12-07T16:19:02;99173.08;;;0.53;100.00
50867;BME280;36839;51.946;21.002;2022-12-07T16:21:30;99168.17;;;0.52;100.00
50867;BME280;36839;51.946;21.002;2022-12-07T16:23:58;99168.17;;;0.52;100.00
50867;BME280;36839;51.946;21.002;2022-12-07T16:26:28;99180.42;;;0.43;100.00
50867;BME280;36839;51.946;21.002;2022-12-07T16:28:57;99182.39;;;0.36;100.00
50867;BME280;36839;51.946;21.002;2022-12-07T16:31:27;99181.03;;;0.36;100.00
50867;BME280;36839;51.946;21.002;2022-12-07T16:33:56;99177.05;;;0.39;100.00
50867;BME280;36839;51.946;21.002;2022-12-07T16:36:23;99177.05;;;0.39;100.00
50867;BME280;36839;51.946;21.002;2022-12-07T16:38:52;99180.95;;;0.43;100.00
50867;BME280;36839;51.946;21.002;2022-12-07T16:41:20;99171.68;;;0.41;100.00
50867;BME280;36839;51.946;21.002;2022-12-07T16:43:47;99177.94;;;0.42;100.00
50867;BME280;36839;51.946;21.002;2022-12-07T16:46:15;99176.28;;;0.41;100.00
50867;BME280;36839;51.946;21.002;2022-12-07T16:48:44;99181.42;;;0.40;100.00
50867;BME280;36839;51.946;21.002;2022-12-07T16:51:13;99174.98;;;0.43;100.00
50867;BME280;36839;51.946;21.002;2022-12-07T16:53:43;99174.98;;;0.43;100.00
50867;BME280;36839;51.946;21.002;2022-12-07T16:56:14;99176.70;;;0.47;100.00
50867;BME280;36839;51.946;21.002;2022-12-07T16:58:46;99170.83;;;0.50;100.00
50867;BME280;36839;51.946;21.002;2022-12-07T17:01:19;99170.95;;;0.55;100.00
50867;BME280;36839;51.946;21.002;2022-12-07T17:03:49;99171.78;;;0.55;100.00
50867;BME280;36839;51.946;21.002;2022-12-07T17:06:24;99156.83;;;0.55;100.00
50867;BME280;36839;51.946;21.002;2022-12-07T17:08:53;99159.08;;;0.68;100.00
50867;BME280;36839;51.946;21.002;2022-12-07T17:11:28;99163.53;;;0.83;100.00
50867;BME280;36839;51.946;21.002;2022-12-07T17:14:00;99165.55;;;0.76;100.00
50867;BME280;36839;51.946;21.002;2022-12-07T17:16:48;99156.18;;;0.72;100.00
50867;BME280;36839;51.946;21.002;2022-12-07T17:19:17;99164.86;;;0.71;100.00
50867;BME280;36839;51.946;21.002;2022-12-07T17:21:45;99164.86;;;0.71;100.00
50867;BME280;36839;51.946;21.002;2022-12-07T17:24:15;99167.58;;;0.71;100.00
50867;BME280;36839;51.946;21.002;2022-12-07T17:26:45;99164.04;;;0.71;100.00
50867;BME280;36839;51.946;21.002;2022-12-07T17:29:14;99167.29;;;0.70;100.00
50867;BME280;36839;51.946;21.002;2022-12-07T17:31:44;99171.66;;;0.71;100.00
50867;BME280;36839;51.946;21.002;2022-12-07T17:34:15;99170.06;;;0.73;100.00
50867;BME280;36839;51.946;21.002;2022-12-07T17:36:47;99166.28;;;0.74;100.00
50867;BME280;36839;51.946;21.002;2022-12-07T17:39:16;99166.28;;;0.74;100.00
50867;BME280;36839;51.946;21.002;2022-12-07T17:41:45;99169.77;;;0.72;100.00
50867;BME280;36839;51.946;21.002;2022-12-07T17:44:31;99172.19;;;0.71;100.00
50867;BME280;36839;51.946;21.002;2022-12-07T17:47:03;99172.25;;;0.73;100.00
50867;BME280;36839;51.946;21.002;2022-12-07T17:49:32;99169.00;;;0.74;100.00
50867;BME280;36839;51.946;21.002;2022-12-07T17:52:01;99171.42;;;0.73;100.00
50867;BME280;36839;51.946;21.002;2022-12-07T17:54:46;99171.42;;;0.73;100.00
50867;BME280;36839;51.946;21.002;2022-12-07T17:57:14;99167.20;;;0.77;100.00
50867;BME280;36839;51.946;21.002;2022-12-07T17:59:41;99167.20;;;0.77;100.00
50867;BME280;36839;51.946;21.002;2022-12-07T18:02:11;99179.48;;;0.79;100.00
50867;BME280;36839;51.946;21.002;2022-12-07T18:04:39;99163.47;;;0.80;100.00
50867;BME280;36839;51.946;21.002;2022-12-07T18:07:11;99163.47;;;0.80;100.00
50867;BME280;36839;51.946;21.002;2022-12-07T18:09:38;99170.50;;;0.79;100.00
50867;BME280;36839;51.946;21.002;2022-12-07T18:12:08;99171.03;;;0.78;100.00
50867;BME280;36839;51.946;21.002;2022-12-07T18:14:37;99169.44;;;0.80;100.00
50867;BME280;36839;51.946;21.002;2022-12-07T18:17:10;99172.45;;;0.81;100.00
50867;BME280;36839;51.946;21.002;2022-12-07T18:19:36;99173.28;;;0.81;100.00
50867;BME280;36839;51.946;21.002;2022-12-07T18:22:06;99169.20;;;0.81;100.00
50867;BME280;36839;51.946;21.002;2022-12-07T18:24:42;99172.69;;;0.79;100.00
50867;BME280;36839;51.946;21.002;2022-12-07T18:27:11;99172.69;;;0.79;100.00
50867;BME280;36839;51.946;21.002;2022-12-07T18:29:39;99169.38;;;0.77;100.00
50867;BME280;36839;51.946;21.002;2022-12-07T18:32:06;99168.47;;;0.74;100.00
50867;BME280;36839;51.946;21.002;2022-12-07T18:34:34;99168.41;;;0.72;100.00
50867;BME280;36839;51.946;21.002;2022-12-07T18:37:01;99179.13;;;0.76;100.00
50867;BME280;36839;51.946;21.002;2022-12-07T18:39:29;99176.09;;;0.75;100.00
50867;BME280;36839;51.946;21.002;2022-12-07T18:41:57;99186.58;;;0.80;100.00
50867;BME280;36839;51.946;21.002;2022-12-07T18:44:27;99186.58;;;0.80;100.00
50867;BME280;36839;51.946;21.002;2022-12-07T18:47:01;99183.38;;;0.83;100.00
50867;BME280;36839;51.946;21.002;2022-12-07T18:49:30;99183.62;;;0.82;100.00
50867;BME280;36839;51.946;21.002;2022-12-07T18:51:58;99180.13;;;0.84;100.00
50867;BME280;36839;51.946;21.002;2022-12-07T18:54:26;99190.33;;;0.89;100.00
50867;BME280;36839;51.946;21.002;2022-12-07T18:56:55;99183.77;;;0.87;100.00
50867;BME280;36839;51.946;21.002;2022-12-07T18:59:23;99180.81;;;0.89;100.00
50867;BME280;36839;51.946;21.002;2022-12-07T19:02:13;99186.01;;;0.90;100.00
50867;BME280;36839;51.946;21.002;2022-12-07T19:04:43;99187.95;;;0.92;100.00
50867;BME280;36839;51.946;21.002;2022-12-07T19:07:14;99197.47;;;0.92;100.00
50867;BME280;36839;51.946;21.002;2022-12-07T19:09:45;99184.59;;;0.88;100.00
50867;BME280;36839;51.946;21.002;2022-12-07T19:12:16;99190.73;;;0.95;100.00
50867;BME280;36839;51.946;21.002;2022-12-07T19:14:44;99194.22;;;0.93;100.00
50867;BME280;36839;51.946;21.002;2022-12-07T19:17:12;99195.05;;;0.93;100.00
50867;BME280;36839;51.946;21.002;2022-12-07T19:19:47;99203.14;;;0.91;100.00
50867;BME280;36839;51.946;21.002;2022-12-07T19:22:18;99198.06;;;0.94;100.00
50867;BME280;36839;51.946;21.002;2022-12-07T19:24:51;99205.86;;;0.91;100.00
50867;BME280;36839;51.946;21.002;2022-12-07T19:27:23;99205.86;;;0.91;100.00
50867;BME280;36839;51.946;21.002;2022-12-07T19:29:52;99209.59;;;0.87;100.00
50867;BME280;36839;51.946;21.002;2022-12-07T19:32:19;99218.34;;;0.89;100.00
50867;BME280;36839;51.946;21.002;2022-12-07T19:34:50;99207.84;;;0.83;100.00
50867;BME280;36839;51.946;21.002;2022-12-07T19:37:19;99207.84;;;0.83;100.00
50867;BME280;36839;51.946;21.002;2022-12-07T19:39:47;99225.69;;;0.79;100.00
50867;BME280;36839;51.946;21.002;2022-12-07T19:42:18;99236.70;;;0.75;100.00
50867;BME280;36839;51.946;21.002;2022-12-07T19:44:46;99240.41;;;1.02;100.00
50867;BME280;36839;51.946;21.002;2022-12-07T19:47:13;99236.77;;;0.87;100.00
50867;BME280;36839;51.946;21.002;2022-12-07T19:49:45;99236.41;;;0.74;100.00
50867;BME280;36839;51.946;21.002;2022-12-07T19:52:14;99236.41;;;0.74;100.00
50867;BME280;36839;51.946;21.002;2022-12-07T19:54:42;99234.94;;;0.69;100.00
50867;BME280;36839;51.946;21.002;2022-12-07T19:57:10;99241.57;;;0.64;100.00
50867;BME280;36839;51.946;21.002;2022-12-07T19:59:42;99241.57;;;0.64;100.00
50867;BME280;36839;51.946;21.002;2022-12-07T20:02:14;99246.88;;;0.59;100.00
50867;BME280;36839;51.946;21.002;2022-12-07T20:04:48;99251.09;;;0.55;100.00
50867;BME280;36839;51.946;21.002;2022-12-07T20:07:18;99256.25;;;0.45;100.00
50867;BME280;36839;51.946;21.002;2022-12-07T20:09:52;99256.25;;;0.45;100.00
50867;BME280;36839;51.946;21.002;2022-12-07T20:12:19;99265.77;;;0.36;100.00
50867;BME280;36839;51.946;21.002;2022-12-07T20:15:05;99262.82;;;0.19;100.00